createdAt,value
2022-08-22T00:01:57.215Z,99.90
2022-08-22T00:02:57.618Z,99.90
2022-08-22T00:03:00.778Z,99.90
2022-08-22T00:03:03.384Z,99.90
2022-08-22T00:04:44.960Z,99.90
2022-08-22T00:07:20.629Z,99.90
2022-08-22T00:10:03.101Z,99.90
2022-08-22T00:12:32.875Z,99.90
2022-08-22T00:15:02.408Z,99.90
2022-08-22T00:17:35.104Z,99.90
2022-08-22T00:20:07.569Z,99.90
2022-08-22T00:22:45.048Z,99.90
2022-08-22T00:25:29.562Z,99.90
2022-08-22T00:28:25.063Z,99.90
2022-08-22T00:31:18.961Z,99.90
2022-08-22T00:33:52.957Z,99.90
2022-08-22T00:36:30.671Z,99.90
2022-08-22T00:39:13.046Z,99.90
2022-08-22T00:42:01.057Z,99.90
2022-08-22T00:45:09.204Z,99.90
2022-08-22T00:47:38.859Z,99.90
2022-08-22T00:50:27.456Z,99.90
2022-08-22T00:53:10.609Z,99.90
2022-08-22T00:56:21.609Z,99.90
2022-08-22T00:59:23.300Z,99.90
2022-08-22T01:02:01.979Z,99.90
2022-08-22T01:04:34.279Z,99.90
2022-08-22T01:07:11.546Z,99.90
2022-08-22T01:09:59.878Z,99.90
2022-08-22T01:12:29.293Z,99.90
2022-08-22T01:15:07.460Z,99.90
2022-08-22T01:17:55.585Z,99.90
2022-08-22T01:20:28.193Z,99.90
2022-08-22T01:23:04.031Z,99.90
2022-08-22T01:25:50.893Z,99.90
2022-08-22T01:28:32.473Z,99.90
2022-08-22T01:31:31.781Z,99.90
2022-08-22T01:34:20.074Z,99.90
2022-08-22T01:37:21.647Z,99.90
2022-08-22T01:40:13.014Z,99.90
2022-08-22T01:43:01.802Z,99.90
2022-08-22T01:46:03.785Z,99.90
2022-08-22T01:48:46.044Z,99.90
2022-08-22T01:51:42.354Z,99.90
2022-08-22T01:54:20.542Z,99.90
2022-08-22T01:56:48.461Z,99.90
2022-08-22T01:59:33.770Z,99.90
2022-08-22T02:02:37.593Z,99.90
2022-08-22T02:05:13.109Z,99.90
2022-08-22T02:07:46.113Z,99.90
2022-08-22T02:10:19.302Z,99.90
2022-08-22T02:13:08.212Z,99.90
2022-08-22T02:15:41.173Z,99.90
2022-08-22T02:18:32.913Z,99.90
2022-08-22T02:21:15.365Z,99.90
2022-08-22T02:23:56.440Z,99.90
2022-08-22T02:26:39.467Z,99.90
2022-08-22T02:29:09.994Z,99.90
2022-08-22T02:31:56.959Z,99.90
2022-08-22T02:34:36.691Z,99.90
2022-08-22T02:37:14.155Z,99.90
2022-08-22T02:39:55.320Z,99.90
2022-08-22T02:42:38.072Z,99.90
2022-08-22T02:45:15.829Z,99.90
2022-08-22T02:48:11.711Z,99.90
2022-08-22T02:55:15.425Z,99.90
2022-08-22T02:57:52.419Z,99.90
2022-08-22T03:00:32.749Z,99.90
2022-08-22T03:02:59.902Z,99.90
2022-08-22T03:05:41.553Z,99.90
2022-08-22T03:08:22.640Z,99.90
2022-08-22T03:11:02.390Z,99.90
2022-08-22T03:13:36.651Z,99.90
2022-08-22T03:16:21.825Z,99.90
2022-08-22T03:18:56.941Z,99.90
2022-08-22T03:21:36.354Z,99.90
2022-08-22T03:24:14.573Z,99.90
2022-08-22T03:26:51.312Z,99.90
2022-08-22T03:29:33.026Z,99.90
2022-08-22T03:32:23.930Z,99.90
2022-08-22T03:35:08.977Z,99.90
2022-08-22T03:37:35.608Z,99.90
2022-08-22T03:40:21.973Z,99.90
2022-08-22T03:43:33.570Z,99.90
2022-08-22T03:46:12.528Z,99.90
2022-08-22T03:49:05.756Z,99.90
2022-08-22T03:51:38.387Z,99.90
2022-08-22T03:54:53.024Z,99.90
2022-08-22T03:57:44.272Z,99.90
2022-08-22T04:00:18.324Z,99.90
2022-08-22T04:03:00.911Z,99.90
2022-08-22T04:06:13.086Z,99.90
2022-08-22T04:09:02.507Z,99.90
2022-08-22T04:12:08.483Z,99.90
2022-08-22T04:14:57.945Z,99.90
2022-08-22T04:17:51.163Z,99.90
2022-08-22T04:20:51.989Z,99.90
2022-08-22T04:23:37.294Z,99.90
2022-08-22T04:26:29.285Z,99.90
2022-08-22T04:29:07.812Z,99.90
2022-08-22T04:31:43.524Z,99.90
2022-08-22T04:34:21.091Z,99.90
2022-08-22T04:37:03.994Z,99.90
2022-08-22T04:39:39.971Z,99.90
2022-08-22T04:42:36.679Z,99.90
2022-08-22T04:45:12.464Z,99.90
2022-08-22T04:48:00.071Z,99.90
2022-08-22T04:50:42.971Z,99.90
2022-08-22T04:53:38.661Z,99.90
2022-08-22T04:56:25.224Z,99.90
2022-08-22T04:58:59.617Z,99.90
2022-08-22T05:01:43.184Z,99.90
2022-08-22T05:04:31.960Z,99.90
2022-08-22T05:07:05.549Z,99.90
2022-08-22T05:09:37.855Z,99.90
2022-08-22T05:12:11.881Z,99.90
2022-08-22T05:14:44.213Z,99.90
2022-08-22T05:17:15.656Z,99.90
2022-08-22T05:19:53.154Z,99.90
2022-08-22T05:22:29.018Z,99.90
2022-08-22T05:25:01.250Z,99.90
2022-08-22T05:27:35.655Z,99.90
2022-08-22T05:30:09.001Z,99.90
2022-08-22T05:32:44.305Z,99.90
2022-08-22T05:35:11.139Z,99.90
2022-08-22T05:37:48.204Z,99.90
2022-08-22T05:40:24.619Z,99.90
2022-08-22T05:42:53.097Z,99.90
2022-08-22T05:45:20.953Z,99.90
2022-08-22T05:47:47.554Z,99.90
2022-08-22T05:50:24.047Z,99.90
2022-08-22T05:53:10.973Z,99.90
2022-08-22T05:55:49.464Z,99.90
2022-08-22T05:58:16.100Z,99.90
2022-08-22T06:00:47.101Z,99.90
2022-08-22T06:03:36.458Z,99.90
2022-08-22T06:06:11.571Z,99.90
2022-08-22T06:08:44.216Z,99.90
2022-08-22T06:11:40.546Z,99.90
2022-08-22T06:14:07.193Z,99.90
2022-08-22T06:16:47.629Z,99.90
2022-08-22T06:19:19.647Z,99.90
2022-08-22T06:21:50.387Z,99.90
2022-08-22T06:24:24.735Z,99.90
2022-08-22T06:26:56.010Z,99.90
2022-08-22T06:29:42.505Z,99.90
2022-08-22T06:32:52.883Z,99.90
2022-08-22T06:35:55.440Z,99.90
2022-08-22T06:38:28.442Z,99.90
2022-08-22T06:40:57.980Z,99.90
2022-08-22T06:43:25.414Z,99.90
2022-08-22T06:45:53.378Z,99.90
2022-08-22T06:48:23.558Z,99.90
2022-08-22T06:50:56.064Z,99.90
2022-08-22T06:53:32.940Z,99.90
2022-08-22T06:56:02.976Z,99.90
2022-08-22T06:58:37.199Z,99.90
2022-08-22T07:01:12.384Z,99.90
2022-08-22T07:03:47.136Z,99.90
2022-08-22T07:06:17.289Z,99.90
2022-08-22T07:08:44.294Z,99.90
2022-08-22T07:11:19.461Z,99.90
2022-08-22T07:13:57.091Z,99.90
2022-08-22T07:16:40.212Z,99.90
2022-08-22T07:19:08.366Z,99.90
2022-08-22T07:21:47.135Z,99.90
2022-08-22T07:24:17.816Z,99.90
2022-08-22T07:26:50.152Z,99.90
2022-08-22T07:29:46.611Z,99.90
2022-08-22T07:32:26.581Z,99.90
2022-08-22T07:35:06.994Z,99.90
2022-08-22T07:37:55.452Z,99.90
2022-08-22T07:40:28.251Z,99.90
2022-08-22T07:43:32.593Z,99.90
2022-08-22T07:46:04.800Z,99.90
2022-08-22T07:49:07.777Z,99.90
2022-08-22T07:51:42.935Z,99.90
2022-08-22T07:54:13.797Z,99.90
2022-08-22T07:56:54.924Z,99.90
2022-08-22T07:59:23.044Z,99.90
2022-08-22T08:01:55.559Z,99.90
2022-08-22T08:04:26.950Z,99.90
2022-08-22T08:07:02.171Z,99.90
2022-08-22T08:09:33.109Z,99.90
2022-08-22T08:12:02.173Z,99.90
2022-08-22T08:14:30.728Z,99.90
2022-08-22T08:17:17.416Z,99.90
2022-08-22T08:19:47.119Z,99.90
2022-08-22T08:22:25.365Z,99.90
2022-08-22T08:24:57.177Z,99.90
2022-08-22T08:27:50.101Z,99.90
2022-08-22T08:30:34.523Z,99.90
2022-08-22T08:33:24.740Z,99.90
2022-08-22T08:36:01.853Z,99.90
2022-08-22T08:38:39.088Z,99.90
2022-08-22T08:41:38.235Z,99.90
2022-08-22T08:44:27.370Z,99.90
2022-08-22T08:47:19.227Z,99.90
2022-08-22T08:50:17.172Z,99.90
2022-08-22T08:53:20.604Z,99.90
2022-08-22T08:55:59.989Z,99.90
2022-08-22T08:58:43.224Z,99.90
2022-08-22T09:01:28.633Z,99.90
2022-08-22T09:04:30.912Z,99.90
2022-08-22T09:07:16.036Z,99.90
2022-08-22T09:10:07.841Z,99.90
2022-08-22T09:12:56.303Z,99.90
2022-08-22T09:15:59.701Z,99.90
2022-08-22T09:18:34.890Z,99.90
2022-08-22T09:21:30.429Z,99.90
2022-08-22T09:24:23.256Z,99.90
2022-08-22T09:27:08.511Z,99.90
2022-08-22T09:29:51.668Z,99.90
2022-08-22T09:32:53.041Z,99.90
2022-08-22T09:35:19.747Z,99.90
2022-08-22T09:38:08.064Z,99.90
2022-08-22T09:40:46.114Z,99.90
2022-08-22T09:43:37.893Z,99.90
2022-08-22T09:46:21.659Z,99.90
2022-08-22T09:49:05.639Z,99.90
2022-08-22T09:51:55.588Z,99.90
2022-08-22T09:54:43.469Z,99.90
2022-08-22T09:57:26.624Z,99.90
2022-08-22T10:00:14.667Z,99.90
2022-08-22T10:02:56.195Z,99.90
2022-08-22T10:05:44.025Z,99.90
2022-08-22T10:08:19.947Z,99.90
2022-08-22T10:10:54.765Z,99.90
2022-08-22T10:13:57.669Z,99.90
2022-08-22T10:16:27.645Z,99.90
2022-08-22T10:19:09.601Z,99.90
2022-08-22T10:22:08.449Z,99.90
2022-08-22T10:24:50.376Z,99.90
2022-08-22T10:27:45.373Z,99.90
2022-08-22T10:30:33.422Z,99.90
2022-08-22T10:33:11.404Z,99.90
2022-08-22T10:35:51.145Z,99.90
2022-08-22T10:38:26.722Z,99.90
2022-08-22T10:41:03.669Z,99.90
2022-08-22T10:44:00.523Z,99.90
2022-08-22T10:46:54.534Z,99.90
2022-08-22T10:49:32.292Z,99.90
2022-08-22T10:52:19.309Z,99.90
2022-08-22T10:55:13.383Z,99.90
2022-08-22T10:57:52.679Z,99.90
2022-08-22T11:00:53.870Z,99.90
2022-08-22T11:03:42.152Z,99.90
2022-08-22T11:06:27.756Z,99.90
2022-08-22T11:09:18.327Z,99.60
2022-08-22T11:12:02.793Z,98.70
2022-08-22T11:14:31.226Z,98.80
2022-08-22T11:17:34.586Z,98.00
2022-08-22T11:20:26.807Z,98.60
2022-08-22T11:23:21.905Z,97.30
2022-08-22T11:26:13.253Z,99.00
2022-08-22T11:28:48.651Z,98.10
2022-08-22T11:31:21.413Z,98.40
2022-08-22T11:34:22.711Z,99.90
2022-08-22T11:37:11.067Z,99.70
2022-08-22T11:39:47.429Z,98.90
2022-08-22T11:42:23.360Z,99.90
2022-08-22T11:45:06.071Z,99.90
2022-08-22T11:47:41.316Z,99.90
2022-08-22T11:50:14.832Z,99.90
2022-08-22T11:53:07.508Z,99.70
2022-08-22T11:55:42.037Z,99.90
2022-08-22T11:58:17.949Z,99.90
2022-08-22T12:00:56.706Z,99.90
2022-08-22T12:04:03.469Z,99.90
2022-08-22T12:06:59.573Z,99.90
2022-08-22T12:09:47.718Z,99.70
2022-08-22T12:12:35.220Z,99.90
2022-08-22T12:15:24.494Z,99.40
2022-08-22T12:18:20.147Z,99.60
2022-08-22T12:20:52.233Z,99.20
2022-08-22T12:23:57.113Z,99.90
2022-08-22T12:26:36.210Z,99.50
2022-08-22T12:29:33.472Z,99.50
2022-08-22T12:32:22.782Z,99.90
2022-08-22T12:35:30.011Z,99.30
2022-08-22T12:38:02.747Z,99.90
2022-08-22T12:40:53.523Z,99.20
2022-08-22T12:43:34.069Z,98.80
2022-08-22T12:46:33.910Z,99.30
2022-08-22T12:49:21.864Z,99.90
2022-08-22T12:52:08.312Z,99.90
2022-08-22T12:55:05.154Z,99.90
2022-08-22T12:57:39.810Z,99.90
2022-08-22T13:00:23.078Z,99.90
2022-08-22T13:02:54.687Z,99.90
2022-08-22T13:05:25.609Z,99.90
2022-08-22T13:07:59.235Z,99.90
2022-08-22T13:10:35.805Z,99.90
2022-08-22T13:13:12.398Z,99.90
2022-08-22T13:15:54.050Z,99.90
2022-08-22T13:18:29.657Z,99.90
2022-08-22T13:21:01.792Z,99.90
2022-08-22T13:23:31.679Z,99.90
2022-08-22T13:26:33.223Z,99.90
2022-08-22T13:29:39.349Z,99.90
2022-08-22T13:32:02.857Z,99.40
2022-08-22T13:34:56.954Z,98.80
2022-08-22T13:37:36.692Z,99.00
2022-08-22T13:40:08.597Z,98.80
2022-08-22T13:42:45.490Z,99.90
2022-08-22T13:45:22.279Z,99.90
2022-08-22T13:48:03.746Z,99.90
2022-08-22T13:50:52.959Z,98.00
2022-08-22T13:53:34.254Z,98.40
2022-08-22T13:56:15.988Z,98.50
2022-08-22T13:58:50.622Z,98.30
2022-08-22T14:01:28.420Z,98.10
2022-08-22T14:04:28.395Z,97.50
2022-08-22T14:07:05.953Z,98.40
2022-08-22T14:09:32.910Z,97.60
2022-08-22T14:12:19.825Z,98.30
2022-08-22T14:14:54.581Z,98.70
2022-08-22T14:17:28.065Z,98.70
2022-08-22T14:20:01.773Z,96.90
2022-08-22T14:22:34.981Z,97.30
2022-08-22T14:25:18.058Z,97.90
2022-08-22T14:27:57.606Z,98.20
2022-08-22T14:31:07.380Z,98.40
2022-08-22T14:33:39.746Z,98.40
2022-08-22T14:36:45.665Z,96.60
2022-08-22T14:39:42.836Z,96.90
2022-08-22T14:42:25.153Z,97.10
2022-08-22T14:45:08.300Z,98.00
2022-08-22T14:47:54.999Z,96.60
2022-08-22T14:51:10.017Z,95.90
2022-08-22T14:53:40.097Z,96.20
2022-08-22T14:56:19.204Z,95.70
2022-08-22T14:59:04.140Z,95.90
2022-08-22T15:01:33.380Z,94.50
2022-08-22T15:04:10.069Z,95.80
2022-08-22T15:06:47.862Z,95.10
2022-08-22T15:09:30.192Z,96.00
2022-08-22T15:11:58.085Z,96.60
2022-08-22T15:14:52.388Z,97.10
2022-08-22T15:17:44.000Z,96.80
2022-08-22T15:20:30.682Z,96.80
2022-08-22T15:23:09.755Z,94.90
2022-08-22T15:25:41.236Z,95.80
2022-08-22T15:28:14.382Z,96.90
2022-08-22T15:31:00.024Z,96.10
2022-08-22T15:33:40.375Z,96.30
2022-08-22T15:36:27.972Z,97.20
2022-08-22T15:39:28.506Z,97.20
2022-08-22T15:41:56.809Z,96.00
2022-08-22T15:44:33.412Z,96.70
2022-08-22T15:47:23.725Z,95.70
2022-08-22T15:49:59.431Z,96.90
2022-08-22T15:52:32.781Z,96.50
2022-08-22T15:55:18.744Z,96.20
2022-08-22T15:58:10.079Z,96.90
2022-08-22T16:00:45.051Z,96.90
2022-08-22T16:03:23.160Z,97.20
2022-08-22T16:06:40.153Z,97.20
2022-08-22T16:09:27.309Z,96.90
2022-08-22T16:11:55.860Z,97.70
2022-08-22T16:14:33.439Z,96.10
2022-08-22T16:17:04.705Z,96.70
2022-08-22T16:19:33.257Z,96.20
2022-08-22T16:22:02.003Z,95.50
2022-08-22T16:24:31.656Z,94.20
2022-08-22T16:27:18.866Z,93.50
2022-08-22T16:29:46.041Z,92.50
2022-08-22T16:32:25.149Z,91.80
2022-08-22T16:34:51.848Z,91.70
2022-08-22T16:37:29.929Z,89.20
2022-08-22T16:40:05.603Z,90.20
2022-08-22T16:42:46.319Z,89.30
2022-08-22T16:45:33.765Z,88.90
2022-08-22T16:48:17.243Z,88.60
2022-08-22T16:50:44.426Z,89.00
2022-08-22T16:53:29.460Z,88.40
2022-08-22T16:56:08.324Z,85.80
2022-08-22T16:59:23.366Z,86.00
2022-08-22T17:02:18.078Z,86.50
2022-08-22T17:04:55.376Z,88.10
2022-08-22T17:07:33.394Z,90.10
2022-08-22T17:10:15.432Z,90.20
2022-08-22T17:13:09.908Z,91.30
2022-08-22T17:15:49.787Z,90.80
2022-08-22T17:18:42.590Z,90.20
2022-08-22T17:21:17.501Z,90.10
2022-08-22T17:24:04.840Z,91.30
2022-08-22T17:26:55.495Z,91.20
2022-08-22T17:29:43.568Z,92.60
2022-08-22T17:32:15.618Z,94.30
2022-08-22T17:35:06.670Z,94.20
2022-08-22T17:37:54.743Z,96.00
2022-08-22T17:40:57.538Z,98.30
2022-08-22T17:43:49.056Z,99.50
2022-08-22T17:46:35.085Z,99.60
2022-08-22T17:49:15.812Z,98.80
2022-08-22T17:51:54.792Z,99.90
2022-08-22T17:54:31.729Z,99.90
2022-08-22T17:57:05.712Z,99.90
2022-08-22T17:59:52.477Z,99.90
2022-08-22T18:02:28.011Z,99.90
2022-08-22T18:05:17.007Z,99.90
2022-08-22T18:07:58.617Z,99.90
2022-08-22T18:10:48.885Z,99.90
2022-08-22T18:13:54.131Z,99.90
2022-08-22T18:16:31.121Z,99.90
2022-08-22T18:19:36.293Z,99.90
2022-08-22T18:22:08.123Z,99.90
2022-08-22T18:24:53.333Z,99.90
2022-08-22T18:27:35.433Z,99.90
2022-08-22T18:30:11.445Z,99.90
2022-08-22T18:32:59.212Z,99.90
2022-08-22T18:35:49.776Z,99.90
2022-08-22T18:38:23.305Z,99.90
2022-08-22T18:40:57.194Z,99.90
2022-08-22T18:43:44.477Z,99.90
2022-08-22T18:46:38.150Z,99.90
2022-08-22T18:49:15.576Z,99.90
2022-08-22T18:51:43.432Z,99.90
2022-08-22T18:54:13.598Z,99.90
2022-08-22T18:57:00.623Z,99.90
2022-08-22T18:59:46.661Z,99.90
2022-08-22T19:02:55.583Z,99.90
2022-08-22T19:05:42.086Z,99.90
2022-08-22T19:08:30.411Z,99.90
2022-08-22T19:11:22.034Z,99.90
2022-08-22T19:14:15.060Z,99.90
2022-08-22T19:17:11.902Z,99.90
2022-08-22T19:20:27.714Z,99.90
2022-08-22T19:23:32.674Z,99.90
2022-08-22T19:26:24.806Z,99.90
2022-08-22T19:29:29.492Z,99.90
2022-08-22T19:31:59.361Z,99.90
2022-08-22T19:34:30.779Z,99.90
2022-08-22T19:37:31.003Z,99.90
2022-08-22T19:40:06.576Z,99.90
2022-08-22T19:42:36.504Z,99.90
2022-08-22T19:45:20.124Z,99.90
2022-08-22T19:47:57.126Z,99.90
2022-08-22T19:50:28.464Z,99.90
2022-08-22T19:53:06.139Z,99.90
2022-08-22T19:55:50.910Z,99.90
2022-08-22T19:58:34.825Z,99.90
2022-08-22T20:01:23.477Z,99.90
2022-08-22T20:04:07.869Z,99.90
2022-08-22T20:06:53.215Z,99.90
2022-08-22T20:09:43.760Z,99.90
2022-08-22T20:12:19.190Z,99.90
2022-08-22T20:14:47.274Z,99.90
2022-08-22T20:17:26.109Z,99.90
2022-08-22T20:20:18.466Z,99.90
2022-08-22T20:22:55.406Z,99.90
2022-08-22T20:25:42.191Z,99.90
2022-08-22T20:28:29.619Z,99.90
2022-08-22T20:31:02.592Z,99.90
2022-08-22T20:33:39.116Z,99.90
2022-08-22T20:36:18.539Z,99.90
2022-08-22T20:39:19.734Z,99.90
2022-08-22T20:41:56.183Z,99.90
2022-08-22T20:44:33.337Z,99.90
2022-08-22T20:47:11.045Z,99.90
2022-08-22T20:49:42.008Z,99.90
2022-08-22T20:52:20.325Z,99.90
2022-08-22T20:55:18.013Z,99.90
2022-08-22T20:57:59.104Z,99.90
2022-08-22T21:00:42.167Z,99.90
2022-08-22T21:03:24.455Z,99.90
2022-08-22T21:05:51.296Z,99.90
2022-08-22T21:08:22.756Z,99.90
2022-08-22T21:11:20.308Z,99.90
2022-08-22T21:13:48.486Z,99.90
2022-08-22T21:16:38.303Z,99.90
2022-08-22T21:19:20.631Z,99.90
2022-08-22T21:21:47.415Z,99.90
2022-08-22T21:24:14.155Z,99.90
2022-08-22T21:26:49.173Z,99.90
2022-08-22T21:29:15.822Z,99.90
2022-08-22T21:31:59.125Z,99.90
2022-08-22T21:34:40.710Z,99.90
2022-08-22T21:37:14.819Z,99.90
2022-08-22T21:39:59.504Z,99.90
2022-08-22T21:42:37.943Z,99.90
2022-08-22T21:45:34.054Z,99.90
2022-08-22T21:48:01.749Z,99.90
2022-08-22T21:50:38.012Z,99.90
2022-08-22T21:53:12.116Z,99.90
2022-08-22T21:55:46.878Z,99.90
2022-08-22T21:58:35.462Z,99.90
2022-08-22T22:01:30.936Z,99.90
2022-08-22T22:03:59.311Z,99.90
2022-08-22T22:06:26.818Z,99.90
2022-08-22T22:08:53.568Z,99.90
2022-08-22T22:11:20.308Z,99.90
2022-08-22T22:13:47.360Z,99.90
2022-08-22T22:16:22.057Z,99.90
2022-08-22T22:18:48.824Z,99.90
2022-08-22T22:21:16.693Z,99.90
2022-08-22T22:23:43.456Z,99.90
2022-08-22T22:26:10.468Z,99.90
2022-08-22T22:28:40.258Z,99.90
2022-08-22T22:31:07.088Z,99.90
2022-08-22T22:33:37.863Z,99.90
2022-08-22T22:36:17.849Z,99.90
2022-08-22T22:38:45.249Z,99.90
2022-08-22T22:41:12.016Z,99.90
2022-08-22T22:43:38.870Z,99.90
2022-08-22T22:46:06.381Z,99.90
2022-08-22T22:48:33.729Z,99.90
2022-08-22T22:51:05.901Z,99.90
2022-08-22T22:53:38.423Z,99.90
2022-08-22T22:56:09.570Z,99.90
2022-08-22T22:58:37.679Z,99.90
2022-08-22T23:01:19.856Z,99.90
2022-08-22T23:03:48.209Z,99.90
2022-08-22T23:06:18.532Z,99.90
2022-08-22T23:08:45.760Z,99.90
2022-08-22T23:11:14.890Z,99.90
2022-08-22T23:13:42.967Z,99.90
2022-08-22T23:16:12.910Z,99.90
2022-08-22T23:18:40.504Z,99.90
2022-08-22T23:21:19.212Z,99.90
2022-08-22T23:23:47.235Z,99.90
2022-08-22T23:26:14.546Z,99.90
2022-08-22T23:28:41.313Z,99.90
2022-08-22T23:31:10.849Z,99.90
2022-08-22T23:33:37.747Z,99.90
2022-08-22T23:36:16.428Z,99.90
2022-08-22T23:38:44.122Z,99.90
2022-08-22T23:41:12.636Z,99.90
2022-08-22T23:43:48.520Z,99.90
2022-08-22T23:46:18.473Z,99.90
2022-08-22T23:48:45.441Z,99.90
2022-08-22T23:51:18.728Z,99.90
2022-08-22T23:53:50.644Z,99.90
2022-08-22T23:56:26.653Z,99.90
2022-08-22T23:58:53.753Z,99.90
